Montrose, West Virginia
Current Conditions -  °F | °C
As of 10:51 PM on Friday 19 Dec 2014 (Local Time) from KEKN Reporting Station
Overcast Overcast  
Wind Chill: 26°   Ceiling: 1100
Heat Index: 26°   Visibility: 10mi
Dew Point: 22°   Wind: 0mph
Humidity: 84%   Direction: NA
Pressure: 30.22"   Gusts: NA
Location:  39.07°N, 79.81°W
Report Text: KEKN 200351Z AUTO 00000KT 10SM OVC011 M03/M06 A3022 RMK AO2 SLP262 T10331056 TSNO $
Loading
Personal Weather Stations






























Interactive Weather Map New forecast layout! Learn more

10-Day Weather Forecast

Advertisements
Track Severe Weather on mobile